Time;durP1;ratioP1;P1;durP2;ratioP2;P2;SDS_P1;SDS_P2;PMS_P1;PMS_P2;Temp;Humidity;BMP_temperature;BMP_pressure;BME280_temperature;BME280_humidity;BME280_pressure;Samples;Min_cycle;Max_cycle;Signal;HPM_P1;HPM_P2
2023/03/11 00:01:39;;;;;;;19.50;12.90;;;;;;;12.87;52.59;97294.19;145011;1262;97928;-78
2023/03/11 00:05:01;;;;;;;18.90;12.70;;;;;;;12.86;52.59;97294.05;145188;1259;97921;-78
2023/03/11 00:08:24;;;;;;;26.40;12.90;;;;;;;12.86;52.68;97294.91;145134;1261;97909;-80
2023/03/11 00:11:46;;;;;;;20.50;12.60;;;;;;;12.86;52.56;97294.91;145491;1254;98819;-80
2023/03/11 00:15:09;;;;;;;20.50;12.40;;;;;;;12.87;52.74;97288.60;145236;1260;99204;-76
2023/03/11 00:18:31;;;;;;;23.30;12.30;;;;;;;12.87;52.58;97284.98;144828;1254;98045;-79
2023/03/11 00:21:52;;;;;;;18.60;12.60;;;;;;;12.86;52.55;97282.02;145397;1261;97928;-78
2023/03/11 00:25:14;;;;;;;25.20;12.80;;;;;;;12.86;52.68;97278.02;145240;1254;111140;-76
2023/03/11 00:28:36;;;;;;;19.40;12.60;;;;;;;12.86;52.69;97275.04;145212;1254;97965;-78
2023/03/11 00:31:57;;;;;;;19.30;12.20;;;;;;;12.86;52.65;97276.10;145154;1254;98833;-78
2023/03/11 00:35:22;;;;;;;19.20;11.60;;;;;;;12.86;52.71;97273.98;145133;1264;101983;-78
2023/03/11 00:38:44;;;;;;;15.10;10.60;;;;;;;12.86;52.56;97274.70;145189;1261;102883;-78
2023/03/11 00:42:06;;;;;;;19.20;12.00;;;;;;;12.86;52.66;97270.88;145147;1266;99248;-77
2023/03/11 00:45:28;;;;;;;18.80;11.00;;;;;;;12.84;52.68;97265.35;145358;1257;97916;-77
2023/03/11 00:48:50;;;;;;;18.10;12.40;;;;;;;12.85;52.81;97259.92;145031;1254;107481;-78
2023/03/11 00:52:12;;;;;;;19.60;13.10;;;;;;;12.85;52.69;97256.08;144854;1261;97976;-78
2023/03/11 00:55:34;;;;;;;16.80;11.30;;;;;;;12.85;52.63;97251.04;145339;1260;97923;-77
2023/03/11 00:59:00;;;;;;;15.90;10.60;;;;;;;12.84;52.80;97247.39;145209;1254;97912;-77
2023/03/11 01:02:22;;;;;;;19.90;11.90;;;;;;;12.84;52.74;97243.39;145046;1268;97909;-77
2023/03/11 01:05:44;;;;;;;23.10;11.70;;;;;;;12.83;52.75;97238.39;145332;1254;98525;-78
2023/03/11 01:09:06;;;;;;;21.00;11.30;;;;;;;12.82;52.80;97240.84;145101;1268;97903;-77
2023/03/11 01:12:27;;;;;;;18.60;12.20;;;;;;;12.81;52.75;97241.77;144932;1263;97914;-77
2023/03/11 01:15:49;;;;;;;18.10;11.20;;;;;;;12.80;52.93;97242.52;145280;1260;97927;-77
2023/03/11 01:19:11;;;;;;;19.80;12.30;;;;;;;12.78;52.82;97237.52;145211;1260;111106;-77
2023/03/11 01:22:33;;;;;;;21.30;11.20;;;;;;;12.76;52.92;97237.95;145228;1277;97997;-77
2023/03/11 01:25:59;;;;;;;19.50;11.90;;;;;;;12.74;52.96;97239.92;145447;1254;97901;-78
2023/03/11 01:29:38;;;;;;;16.90;10.60;;;;;;;12.72;53.02;97238.42;145217;1254;102084;-77
2023/03/11 01:33:01;;;;;;;15.10;10.40;;;;;;;12.70;53.04;97241.63;145020;1254;99308;-76
2023/03/11 01:36:23;;;;;;;17.40;11.10;;;;;;;12.68;53.05;97241.33;145264;1260;97986;-78
2023/03/11 01:39:44;;;;;;;17.20;10.50;;;;;;;12.67;53.16;97235.48;144859;1260;108795;-77
2023/03/11 01:43:35;;;;;;;15.60;10.70;;;;;;;12.64;53.18;97228.27;145124;1254;97915;-78
2023/03/11 01:47:01;;;;;;;14.70;10.40;;;;;;;12.62;53.10;97218.91;145172;1260;109190;-77
2023/03/11 01:50:30;;;;;;;15.70;10.40;;;;;;;12.60;53.25;97217.42;145218;1260;108066;-76
2023/03/11 01:53:54;;;;;;;18.00;10.80;;;;;;;12.59;53.17;97218.69;145231;1254;107400;-77
2023/03/11 01:57:19;;;;;;;15.70;10.50;;;;;;;12.57;53.24;97217.89;144892;1261;107586;-76
2023/03/11 02:00:42;;;;;;;19.60;10.70;;;;;;;12.55;53.23;97216.20;144851;1263;109850;-77
2023/03/11 02:04:03;;;;;;;16.90;10.10;;;;;;;12.53;53.28;97212.95;144365;1259;99125;-76
2023/03/11 02:07:25;;;;;;;18.80;10.80;;;;;;;12.52;53.14;97212.31;144832;1258;98091;-78
2023/03/11 02:10:49;;;;;;;15.90;10.10;;;;;;;12.51;53.20;97215.14;144669;1261;97944;-77
2023/03/11 02:14:10;;;;;;;15.20;9.70;;;;;;;12.48;53.36;97215.21;144540;1261;98340;-76
2023/03/11 02:17:33;;;;;;;16.70;9.50;;;;;;;12.47;53.40;97216.66;144778;1260;97995;-76
2023/03/11 02:20:58;;;;;;;14.40;10.00;;;;;;;12.45;53.43;97211.14;144922;1264;98095;-79
2023/03/11 02:24:32;;;;;;;13.10;9.10;;;;;;;12.43;53.29;97208.43;144859;1263;99051;-78
2023/03/11 02:27:55;;;;;;;14.90;10.40;;;;;;;12.42;53.40;97203.77;144843;1263;98135;-80
2023/03/11 02:31:19;;;;;;;18.00;9.80;;;;;;;12.40;53.29;97203.68;144813;1260;98114;-77
2023/03/11 02:34:43;;;;;;;15.00;9.00;;;;;;;12.38;53.45;97198.85;144289;1261;99225;-77
2023/03/11 02:38:05;;;;;;;12.40;9.10;;;;;;;12.37;53.33;97195.42;144714;1263;98107;-78
2023/03/11 02:41:29;;;;;;;14.70;9.20;;;;;;;12.36;53.40;97199.48;144763;1257;97980;-77
2023/03/11 02:45:11;;;;;;;15.70;8.80;;;;;;;12.34;53.26;97204.39;144980;1257;98023;-76
2023/03/11 02:48:33;;;;;;;11.80;8.20;;;;;;;12.32;53.33;97198.02;144826;1262;97925;-78
2023/03/11 02:51:55;;;;;;;16.10;8.90;;;;;;;12.30;53.41;97199.65;144965;1260;97992;-76
2023/03/11 02:55:19;;;;;;;14.20;9.00;;;;;;;12.28;53.27;97197.28;144854;1260;99207;-78
2023/03/11 02:58:40;;;;;;;13.20;8.60;;;;;;;12.26;53.43;97196.48;145239;1263;112071;-79
2023/03/11 03:02:03;;;;;;;14.20;8.70;;;;;;;12.25;53.39;97199.48;145095;1259;98021;-77
2023/03/11 03:05:25;;;;;;;12.60;8.20;;;;;;;12.22;53.40;97194.70;144959;1257;98419;-78
2023/03/11 03:08:47;;;;;;;13.30;8.40;;;;;;;12.21;53.45;97194.20;144923;1257;103217;-77
2023/03/11 03:12:09;;;;;;;12.10;7.40;;;;;;;12.20;53.30;97191.46;144875;1257;98567;-77
2023/03/11 03:15:31;;;;;;;9.10;7.40;;;;;;;12.18;53.23;97188.73;144892;1263;99235;-78
2023/03/11 03:18:53;;;;;;;14.30;8.50;;;;;;;12.17;53.41;97191.23;144999;1257;107413;-77
2023/03/11 03:22:15;;;;;;;10.30;7.40;;;;;;;12.15;53.35;97190.23;144907;1260;97915;-76
2023/03/11 03:25:41;;;;;;;9.60;6.90;;;;;;;12.13;53.46;97191.17;144923;1259;98723;-78
2023/03/11 03:29:04;;;;;;;8.00;7.10;;;;;;;12.11;53.40;97187.58;145025;1260;98037;-77
2023/03/11 03:32:26;;;;;;;11.60;7.20;;;;;;;12.11;53.23;97189.01;144836;1272;97985;-76
2023/03/11 03:35:48;;;;;;;8.70;6.60;;;;;;;12.09;53.31;97189.23;145030;1260;97942;-77
2023/03/11 03:39:14;;;;;;;12.90;7.20;;;;;;;12.08;53.37;97188.91;144911;1259;98027;-77
2023/03/11 03:42:37;;;;;;;9.30;7.10;;;;;;;12.08;53.46;97187.36;144917;1269;98032;-77
2023/03/11 03:46:01;;;;;;;9.60;6.60;;;;;;;12.07;53.33;97181.27;144863;1260;98028;-77
2023/03/11 03:49:26;;;;;;;10.80;6.30;;;;;;;12.08;53.37;97177.45;145045;1261;112187;-76
2023/03/11 03:52:49;;;;;;;7.50;6.20;;;;;;;12.09;53.41;97183.85;144910;1260;98011;-77
2023/03/11 03:56:13;;;;;;;7.90;6.80;;;;;;;12.09;53.25;97190.08;145110;1257;99107;-76
2023/03/11 03:59:35;;;;;;;7.10;5.60;;;;;;;12.10;53.17;97184.35;144912;1257;101971;-77
2023/03/11 04:02:56;;;;;;;10.20;5.90;;;;;;;12.10;53.22;97178.05;145037;1257;97928;-78
2023/03/11 04:06:26;;;;;;;8.40;5.60;;;;;;;12.11;53.17;97170.36;145046;1256;102265;-77
2023/03/11 04:09:51;;;;;;;9.40;6.10;;;;;;;12.11;53.07;97163.73;145027;1258;100963;-80
2023/03/11 04:13:13;;;;;;;6.80;5.90;;;;;;;12.13;53.23;97163.35;145111;1271;98000;-78
2023/03/11 04:16:35;;;;;;;10.60;5.70;;;;;;;12.14;53.14;97165.05;145095;1273;97909;-77
2023/03/11 04:20:00;;;;;;;8.90;5.20;;;;;;;12.14;53.13;97166.61;144953;1270;108398;-76
2023/03/11 04:23:23;;;;;;;7.30;5.10;;;;;;;12.15;53.09;97164.14;144994;1259;98004;-78
2023/03/11 04:26:45;;;;;;;7.70;5.10;;;;;;;12.15;52.96;97161.17;144989;1263;97988;-77
2023/03/11 04:30:09;;;;;;;13.00;6.90;;;;;;;12.16;52.96;97151.94;144994;1259;97938;-76
2023/03/11 04:33:32;;;;;;;7.30;5.00;;;;;;;12.16;52.98;97150.52;145237;1254;97989;-77
2023/03/11 04:36:53;;;;;;;8.00;4.80;;;;;;;12.16;52.87;97156.27;145015;1256;97985;-78
2023/03/11 04:40:19;;;;;;;6.90;4.80;;;;;;;12.17;52.78;97156.73;145127;1259;97912;-77
2023/03/11 04:43:41;;;;;;;7.40;5.20;;;;;;;12.19;52.84;97158.09;145105;1257;98037;-78
2023/03/11 04:47:03;;;;;;;8.80;5.40;;;;;;;12.20;52.87;97164.84;145141;1258;98908;-77
2023/03/11 04:50:25;;;;;;;7.30;5.30;;;;;;;12.20;53.01;97162.02;144860;1259;112209;-77
2023/03/11 04:53:47;;;;;;;5.20;4.70;;;;;;;12.21;52.84;97160.61;144991;1255;99242;-78
2023/03/11 04:57:09;;;;;;;9.40;4.80;;;;;;;12.22;52.94;97160.26;145262;1259;97953;-77
2023/03/11 05:00:32;;;;;;;6.80;4.50;;;;;;;12.22;52.84;97164.41;145089;1257;105158;-77
2023/03/11 05:04:01;;;;;;;6.70;4.80;;;;;;;12.23;52.70;97165.58;144920;1256;143344;-78
2023/03/11 05:07:23;;;;;;;6.60;5.00;;;;;;;12.24;52.73;97168.16;145031;1259;97944;-77
2023/03/11 05:10:45;;;;;;;5.80;5.00;;;;;;;12.24;52.76;97171.10;145245;1259;99190;-76
2023/03/11 05:14:07;;;;;;;8.00;5.30;;;;;;;12.26;52.78;97167.94;145028;1256;107477;-77
2023/03/11 05:17:33;;;;;;;7.30;4.50;;;;;;;12.26;52.81;97166.36;144760;1259;107588;-77
2023/03/11 05:20:55;;;;;;;6.80;4.40;;;;;;;12.26;52.68;97166.52;144828;1259;98345;-76
2023/03/11 05:24:19;;;;;;;6.60;5.10;;;;;;;12.27;52.63;97160.74;145066;1256;98004;-78
2023/03/11 05:27:41;;;;;;;8.40;4.70;;;;;;;12.28;52.70;97161.92;145129;1257;97954;-76
2023/03/11 05:31:08;;;;;;;5.10;4.20;;;;;;;12.29;52.77;97166.09;144887;1259;99168;-77
2023/03/11 05:34:30;;;;;;;4.60;3.90;;;;;;;12.30;52.74;97167.45;144617;1257;98034;-76
2023/03/11 05:37:53;;;;;;;6.30;4.50;;;;;;;12.31;52.76;97172.29;144816;1255;98004;-77
2023/03/11 05:41:15;;;;;;;6.60;4.70;;;;;;;12.32;52.67;97171.39;145002;1256;100789;-77
2023/03/11 05:44:38;;;;;;;4.80;4.30;;;;;;;12.33;52.69;97174.99;145145;1259;99206;-76
2023/03/11 05:48:00;;;;;;;6.00;4.80;;;;;;;12.35;52.48;97170.08;144882;1268;98355;-77
2023/03/11 05:51:23;;;;;;;6.00;4.30;;;;;;;12.36;52.61;97168.30;144917;1259;98805;-77
2023/03/11 05:54:49;;;;;;;7.00;4.30;;;;;;;12.38;52.58;97168.06;145160;1259;99228;-77
2023/03/11 05:58:11;;;;;;;5.90;4.20;;;;;;;12.39;52.49;97164.52;145015;1254;112491;-77
2023/03/11 06:01:34;;;;;;;4.90;3.60;;;;;;;12.42;52.54;97161.27;144856;1260;98801;-78
2023/03/11 06:04:56;;;;;;;7.50;5.20;;;;;;;12.46;52.56;97160.98;145009;1261;97995;-78
2023/03/11 06:08:19;;;;;;;4.70;3.50;;;;;;;12.49;52.56;97158.77;144849;1260;103410;-76
2023/03/11 06:11:41;;;;;;;7.70;4.20;;;;;;;12.52;52.42;97160.39;145232;1259;98357;-77
2023/03/11 06:15:06;;;;;;;4.90;3.90;;;;;;;12.56;52.55;97164.80;144655;1260;98044;-76
2023/03/11 06:18:29;;;;;;;4.90;4.00;;;;;;;12.60;52.51;97175.95;144779;1272;103093;-78
2023/03/11 06:21:52;;;;;;;4.60;3.30;;;;;;;12.63;52.39;97179.00;144982;1260;98139;-78
2023/03/11 06:25:14;;;;;;;3.60;3.10;;;;;;;12.65;52.46;97183.61;144677;1261;98345;-77
2023/03/11 06:28:36;;;;;;;3.70;3.00;;;;;;;12.69;52.34;97188.70;145028;1258;108518;-77
2023/03/11 06:31:58;;;;;;;4.30;3.40;;;;;;;12.72;52.29;97192.24;144970;1258;97989;-77
2023/03/11 06:35:23;;;;;;;4.70;3.60;;;;;;;12.75;52.30;97200.48;144962;1254;97981;-77
2023/03/11 06:38:48;;;;;;;5.70;3.60;;;;;;;12.78;52.25;97199.19;144991;1254;98837;-78
2023/03/11 06:42:10;;;;;;;4.80;3.10;;;;;;;12.81;52.33;97198.04;145012;1260;106334;-76
2023/03/11 06:45:32;;;;;;;6.50;2.80;;;;;;;12.84;52.15;97202.98;145356;1254;97867;-77
2023/03/11 06:48:54;;;;;;;4.30;3.80;;;;;;;12.87;52.16;97203.94;144905;1261;97956;-77
2023/03/11 06:52:16;;;;;;;4.80;3.30;;;;;;;12.89;52.27;97207.86;144646;1260;98072;-78
2023/03/11 06:55:38;;;;;;;4.10;3.00;;;;;;;12.92;52.21;97204.27;144688;1254;97991;-76
2023/03/11 06:59:00;;;;;;;3.90;2.80;;;;;;;12.97;52.12;97206.66;145088;1260;99207;-77
2023/03/11 07:02:25;;;;;;;2.90;2.40;;;;;;;13.03;52.15;97208.02;145226;1254;98001;-77
2023/03/11 07:05:50;;;;;;;3.70;2.70;;;;;;;13.08;52.17;97212.04;145152;1255;99197;-77
2023/03/11 07:09:12;;;;;;;3.90;2.70;;;;;;;13.10;52.07;97215.60;144874;1260;97993;-76
2023/03/11 07:12:47;;;;;;;4.30;2.90;;;;;;;13.12;52.08;97216.95;144775;1259;99212;-76
2023/03/11 07:16:11;;;;;;;4.60;2.90;;;;;;;13.13;52.04;97216.01;144830;1256;98414;-77
2023/03/11 07:19:33;;;;;;;3.10;2.60;;;;;;;13.17;52.03;97222.35;145007;1259;98003;-76
2023/03/11 07:22:55;;;;;;;3.00;2.40;;;;;;;13.17;52.10;97225.10;145072;1256;98322;-77
2023/03/11 07:26:17;;;;;;;3.40;2.60;;;;;;;13.19;52.04;97230.25;145256;1259;111179;-76
2023/03/11 07:29:39;;;;;;;3.80;3.30;;;;;;;13.22;52.02;97229.81;145293;1259;98042;-78
2023/03/11 07:33:00;;;;;;;4.60;2.90;;;;;;;13.23;52.01;97236.75;145248;1259;98322;-77
2023/03/11 07:36:24;;;;;;;3.10;2.50;;;;;;;13.24;52.00;97241.44;145141;1259;102187;-77
2023/03/11 07:39:45;;;;;;;3.40;2.50;;;;;;;13.25;52.01;97238.46;145124;1259;99210;-77
2023/03/11 07:43:07;;;;;;;3.70;2.60;;;;;;;13.26;52.06;97239.29;145210;1254;98843;-78
2023/03/11 07:46:30;;;;;;;5.40;2.60;;;;;;;13.27;52.01;97241.54;145240;1259;107564;-77
2023/03/11 07:49:52;;;;;;;6.70;2.70;;;;;;;13.27;52.04;97247.98;145119;1254;97931;-77
2023/03/11 07:53:15;;;;;;;3.00;2.70;;;;;;;13.28;52.01;97247.42;145180;1258;97928;-78
2023/03/11 07:56:37;;;;;;;3.00;2.50;;;;;;;13.28;51.99;97252.64;145306;1254;97941;-76
2023/03/11 08:00:00;;;;;;;4.00;2.90;;;;;;;13.28;52.05;97252.11;145117;1257;97985;-77
2023/03/11 08:03:33;;;;;;;3.30;2.50;;;;;;;13.26;52.02;97257.06;145081;1254;97941;-77
2023/03/11 08:06:55;;;;;;;2.70;2.30;;;;;;;13.27;52.04;97262.45;145218;1259;99219;-76
2023/03/11 08:10:17;;;;;;;3.40;2.50;;;;;;;13.28;52.12;97262.58;145183;1254;97922;-76
2023/03/11 08:13:39;;;;;;;3.20;2.60;;;;;;;13.29;52.07;97262.52;145070;1254;97925;-76
2023/03/11 08:17:02;;;;;;;3.20;2.90;;;;;;;13.30;52.16;97263.21;145150;1259;99187;-76
2023/03/11 08:20:24;;;;;;;3.20;2.50;;;;;;;13.30;52.16;97262.35;145222;1256;98011;-76
2023/03/11 08:24:01;;;;;;;2.90;2.20;;;;;;;13.31;52.22;97266.30;144642;1258;98014;-77
2023/03/11 08:27:27;;;;;;;2.50;2.30;;;;;;;13.31;52.29;97273.09;144798;1260;101516;-78
2023/03/11 08:30:50;;;;;;;2.90;2.00;;;;;;;13.32;52.16;97276.53;144915;1258;99129;-74
2023/03/11 08:34:12;;;;;;;2.50;2.00;;;;;;;13.33;52.19;97284.19;144907;1260;97941;-77
2023/03/11 08:37:34;;;;;;;2.30;2.10;;;;;;;13.35;52.25;97286.20;145196;1257;97932;-76
2023/03/11 08:40:56;;;;;;;3.00;2.70;;;;;;;13.39;53.07;97290.26;144932;1261;111146;-77
2023/03/11 08:44:18;;;;;;;2.60;2.40;;;;;;;13.47;54.08;97295.37;144760;1262;97991;-76
2023/03/11 08:47:40;;;;;;;3.30;1.90;;;;;;;13.51;54.05;97298.68;144957;1260;97993;-76
2023/03/11 08:51:09;;;;;;;3.50;2.20;;;;;;;13.54;54.01;97305.74;144989;1261;102153;-76
2023/03/11 08:54:31;;;;;;;2.70;2.20;;;;;;;13.55;54.18;97305.86;145102;1256;101973;-76
2023/03/11 08:57:54;;;;;;;3.60;2.20;;;;;;;13.55;53.93;97312.83;144857;1257;98415;-76
2023/03/11 09:01:17;;;;;;;4.30;2.10;;;;;;;13.55;53.87;97318.95;144642;1274;97921;-76
2023/03/11 09:04:39;;;;;;;2.80;2.10;;;;;;;13.56;53.77;97323.63;144598;1261;99211;-75
2023/03/11 09:08:02;;;;;;;2.80;2.00;;;;;;;13.55;53.66;97325.40;145106;1260;107607;-77
2023/03/11 09:11:26;;;;;;;5.10;3.20;;;;;;;13.54;53.66;97334.01;145135;1260;107558;-78
2023/03/11 09:14:49;;;;;;;2.30;1.80;;;;;;;13.52;53.67;97336.88;144814;1262;98807;-77
2023/03/11 09:18:12;;;;;;;5.00;2.30;;;;;;;13.50;53.57;97338.87;144801;1261;97934;-77
2023/03/11 09:21:35;;;;;;;3.20;2.10;;;;;;;13.48;53.51;97342.96;145181;1260;97884;-76
2023/03/11 09:24:57;;;;;;;2.40;1.90;;;;;;;13.46;53.55;97350.34;144743;1257;98007;-76
2023/03/11 09:28:19;;;;;;;2.30;2.10;;;;;;;13.46;53.58;97355.92;144881;1261;97998;-76
2023/03/11 09:31:40;;;;;;;3.20;2.90;;;;;;;13.46;53.52;97363.95;144976;1257;97895;-77
2023/03/11 09:35:03;;;;;;;4.20;2.60;;;;;;;13.47;53.54;97367.94;144975;1260;98341;-76
2023/03/11 09:38:25;;;;;;;4.10;3.00;;;;;;;13.47;53.54;97379.44;145006;1260;98068;-75
2023/03/11 09:41:56;;;;;;;4.00;3.20;;;;;;;13.44;53.53;97396.80;145065;1260;109653;-90
2023/03/11 09:45:27;;;;;;;9.30;4.80;;;;;;;13.49;57.25;97400.12;145714;1260;110132;-89
2023/03/11 09:49:26;;;;;;;13.70;9.00;;;;;;;13.81;59.58;97409.09;145527;1260;110853;-93
2023/03/11 09:53:07;;;;;;;8.50;7.00;;;;;;;14.08;60.25;97424.85;145919;1257;111060;-88
2023/03/11 09:56:30;;;;;;;7.90;6.30;;;;;;;14.24;60.59;97436.60;145551;1257;110924;-88
2023/03/11 09:59:54;;;;;;;8.40;7.60;;;;;;;14.38;60.51;97443.58;145632;1256;110834;-88
2023/03/11 10:03:34;;;;;;;9.60;7.00;;;;;;;14.48;60.43;97457.38;146295;1263;109869;-91
2023/03/11 10:07:06;;;;;;;7.80;7.10;;;;;;;14.56;60.25;97461.44;147371;1256;111233;-89
2023/03/11 10:10:37;;;;;;;9.40;7.40;;;;;;;14.62;59.96;97467.66;146336;1260;111075;-83
2023/03/11 10:14:36;;;;;;;8.40;7.30;;;;;;;14.55;58.42;97478.61;145392;1256;110731;-86
2023/03/11 10:18:17;;;;;;;;;;;;;;;14.01;56.41;97483.59;145370;1260;110705;-84
2023/03/11 10:21:58;;;;;;;8.60;7.50;;;;;;;13.47;55.69;97495.63;145437;1256;110384;-84
2023/03/11 10:25:26;;;;;;;7.20;6.60;;;;;;;13.02;55.37;97498.28;145244;1259;111064;-79
2023/03/11 10:29:14;;;;;;;5.90;5.40;;;;;;;12.68;55.13;97504.96;145155;1257;110457;-75
2023/03/11 10:32:43;;;;;;;6.10;4.40;;;;;;;12.36;54.63;97510.61;144813;1260;110891;-77
2023/03/11 10:36:10;;;;;;;5.30;4.50;;;;;;;12.20;57.34;97536.86;145208;1256;111797;-80
2023/03/11 10:39:32;;;;;;;6.80;4.40;;;;;;;12.80;59.92;97538.55;145148;1257;110797;-80
2023/03/11 10:43:00;;;;;;;5.30;3.30;;;;;;;13.42;59.45;97540.08;145286;1259;98978;-78
2023/03/11 10:46:24;;;;;;;3.60;3.30;;;;;;;13.90;59.07;97539.68;145100;1259;112093;-78
2023/03/11 10:49:46;;;;;;;3.60;2.80;;;;;;;14.29;58.88;97552.26;145043;1257;111911;-79
2023/03/11 10:53:12;;;;;;;2.50;2.30;;;;;;;14.60;58.12;97561.97;144723;1259;99192;-78
2023/03/11 10:56:36;;;;;;;6.60;3.20;;;;;;;14.80;57.66;97574.67;144873;1261;111570;-77
2023/03/11 11:00:01;;;;;;;3.30;2.50;;;;;;;14.95;57.02;97585.79;144880;1270;110740;-77
2023/03/11 11:03:23;;;;;;;4.60;2.80;;;;;;;14.69;54.16;97592.04;145006;1260;111256;-76
2023/03/11 11:06:44;;;;;;;2.40;2.20;;;;;;;14.08;53.32;97605.74;144881;1256;97906;-75
2023/03/11 11:10:18;;;;;;;2.60;2.10;;;;;;;13.58;52.29;97613.20;144850;1272;98034;-77
2023/03/11 11:13:55;;;;;;;2.70;2.50;;;;;;;13.00;51.30;97620.41;144657;1262;102013;-75
2023/03/11 11:17:22;;;;;;;1.70;1.60;;;;;;;12.48;50.91;97623.30;145177;1259;102262;-77
2023/03/11 11:21:05;;;;;;;2.10;1.40;;;;;;;12.11;50.88;97630.60;144737;1256;102209;-76
2023/03/11 11:24:28;;;;;;;1.90;1.50;;;;;;;11.72;50.39;97643.95;144792;1260;102293;-76
2023/03/11 11:28:04;;;;;;;2.30;1.70;;;;;;;11.39;50.18;97654.27;144709;1260;98007;-76
2023/03/11 11:31:26;;;;;;;1.60;1.50;;;;;;;11.09;49.99;97659.66;144860;1260;102418;-75
2023/03/11 11:35:01;;;;;;;1.20;1.10;;;;;;;10.87;49.92;97668.84;144896;1256;97928;-76
2023/03/11 11:38:24;;;;;;;1.10;1.00;;;;;;;10.70;49.89;97674.05;144797;1261;101865;-76
2023/03/11 11:41:47;;;;;;;1.30;1.20;;;;;;;10.54;49.69;97684.08;144895;1260;98394;-75
2023/03/11 11:45:42;;;;;;;1.00;0.90;;;;;;;10.44;49.56;97684.46;144936;1261;99333;-79
2023/03/11 11:49:16;;;;;;;1.10;1.00;;;;;;;10.30;49.53;97705.02;145016;1256;102187;-80
2023/03/11 11:52:50;;;;;;;3.50;1.50;;;;;;;10.16;49.66;97722.42;145056;1255;102224;-80
2023/03/11 11:56:12;;;;;;;1.60;1.50;;;;;;;10.00;49.95;97728.94;145213;1259;102137;-80
2023/03/11 11:59:34;;;;;;;1.50;1.40;;;;;;;9.84;50.03;97745.85;144952;1259;99232;-78
2023/03/11 12:03:18;;;;;;;2.00;1.50;;;;;;;9.71;50.21;97748.48;145078;1263;99318;-79
2023/03/11 12:06:54;;;;;;;1.80;1.40;;;;;;;9.55;50.20;97759.47;145091;1259;107138;-80
2023/03/11 12:10:33;;;;;;;2.50;2.20;;;;;;;9.37;50.59;97767.17;145302;1260;107799;-80
2023/03/11 12:14:20;;;;;;;3.00;2.10;;;;;;;9.22;51.04;97775.52;145140;1259;107374;-80
2023/03/11 12:17:44;;;;;;;2.40;2.20;;;;;;;9.07;50.95;97784.89;145193;1259;107441;-79
2023/03/11 12:21:22;;;;;;;2.30;2.10;;;;;;;8.94;51.15;97793.54;144879;1262;107583;-80
2023/03/11 12:24:50;;;;;;;2.40;2.20;;;;;;;8.86;51.23;97812.49;145048;1259;107479;-77
2023/03/11 12:28:18;;;;;;;3.10;2.60;;;;;;;8.79;51.45;97820.20;144824;1274;107761;-74
2023/03/11 12:31:40;;;;;;;2.00;1.90;;;;;;;8.82;51.86;97837.30;145339;1261;108511;-74
2023/03/11 12:35:18;;;;;;;2.40;1.70;;;;;;;9.13;51.77;97847.52;144770;1261;107686;-74
2023/03/11 12:38:45;;;;;;;1.70;1.60;;;;;;;9.51;51.65;97856.95;144869;1261;108341;-77
2023/03/11 12:42:10;;;;;;;2.40;2.20;;;;;;;9.83;51.14;97862.43;144886;1259;107509;-75
2023/03/11 12:45:52;;;;;;;1.80;1.70;;;;;;;10.07;50.92;97873.89;144912;1262;107457;-74
2023/03/11 12:49:13;;;;;;;2.00;1.70;;;;;;;10.26;50.66;97886.98;144788;1257;108404;-75
2023/03/11 12:52:51;;;;;;;2.30;2.10;;;;;;;10.41;50.51;97900.48;144830;1262;98043;-75
2023/03/11 12:56:34;;;;;;;2.10;1.70;;;;;;;10.55;50.33;97905.66;145410;1259;106642;-75
2023/03/11 13:00:11;;;;;;;2.30;1.80;;;;;;;10.65;50.09;97920.08;144611;1263;108115;-75
2023/03/11 13:04:03;;;;;;;1.90;1.50;;;;;;;10.73;49.80;97931.75;144799;1257;107572;-76
2023/03/11 13:07:47;;;;;;;5.00;1.60;;;;;;;10.82;49.46;97946.55;143967;1268;108044;-74
2023/03/11 13:11:35;;;;;;;2.20;1.80;;;;;;;10.87;49.51;97947.68;144329;1268;107255;-74
2023/03/11 13:15:19;;;;;;;1.90;1.70;;;;;;;10.89;49.18;97959.98;144167;1265;107482;-75
2023/03/11 13:18:46;;;;;;;1.90;1.30;;;;;;;10.91;49.23;97967.61;144181;1267;107466;-78
2023/03/11 13:23:00;;;;;;;1.70;1.60;;;;;;;10.93;49.07;97974.52;144179;1268;108373;-75
2023/03/11 13:26:34;;;;;;;2.30;2.10;;;;;;;10.94;49.04;97991.89;143442;1292;107476;-75
2023/03/11 13:30:17;;;;;;;2.00;1.80;;;;;;;10.93;49.23;98007.52;143107;1274;107517;-74
2023/03/11 13:33:51;;;;;;;2.00;1.30;;;;;;;10.95;49.01;98014.80;143585;1276;107678;-75
2023/03/11 13:37:39;;;;;;;2.30;1.70;;;;;;;10.95;49.11;98025.40;143137;1273;108724;-72
2023/03/11 13:41:02;;;;;;;1.60;1.50;;;;;;;10.96;49.02;98036.16;143133;1277;107244;-73
2023/03/11 13:44:29;;;;;;;2.20;2.00;;;;;;;10.96;49.03;98055.63;143708;1288;98113;-73
2023/03/11 13:47:52;;;;;;;1.40;1.20;;;;;;;10.97;48.89;98063.95;143943;1265;106317;-74
2023/03/11 13:51:42;;;;;;;1.70;1.60;;;;;;;11.00;48.96;98068.42;144021;1265;107586;-75
2023/03/11 13:55:06;;;;;;;2.00;1.70;;;;;;;10.99;48.93;98076.61;143949;1270;107668;-76
2023/03/11 13:58:28;;;;;;;3.40;1.70;;;;;;;10.95;48.87;98082.75;143868;1265;108148;-72
2023/03/11 14:01:52;;;;;;;2.10;1.50;;;;;;;10.90;48.87;98091.33;144257;1257;98018;-74
2023/03/11 14:05:19;;;;;;;1.90;1.50;;;;;;;10.85;48.92;98099.93;144719;1256;99209;-72
2023/03/11 14:08:55;;;;;;;2.40;1.70;;;;;;;10.80;49.00;98103.30;144746;1263;107307;-74
2023/03/11 14:12:17;;;;;;;2.70;1.60;;;;;;;10.74;49.04;98120.21;144755;1259;107632;-72
2023/03/11 14:15:58;;;;;;;1.70;1.60;;;;;;;10.70;48.87;98122.89;144816;1259;99306;-74
2023/03/11 14:19:22;;;;;;;4.00;2.40;;;;;;;10.64;48.99;98126.61;144759;1262;109204;-75
2023/03/11 14:22:52;;;;;;;4.60;2.40;;;;;;;10.61;49.22;98139.13;144790;1259;97896;-72
2023/03/11 14:26:21;;;;;;;2.10;1.80;;;;;;;10.56;48.88;98147.05;144748;1270;107350;-72
2023/03/11 14:29:44;;;;;;;4.40;2.40;;;;;;;10.51;49.01;98159.07;144823;1259;106727;-73
2023/03/11 14:33:21;;;;;;;2.10;1.60;;;;;;;10.47;49.08;98162.25;144844;1257;97913;-72
2023/03/11 14:36:44;;;;;;;2.70;1.70;;;;;;;10.44;49.05;98169.58;144798;1263;107310;-74
2023/03/11 14:40:26;;;;;;;2.20;1.70;;;;;;;10.39;48.92;98180.57;144689;1263;98027;-74
2023/03/11 14:43:51;;;;;;;3.20;2.00;;;;;;;10.34;48.95;98190.70;144530;1257;108194;-75
2023/03/11 14:47:58;;;;;;;3.90;1.90;;;;;;;10.30;48.79;98194.05;144738;1259;107608;-74
2023/03/11 14:51:24;;;;;;;2.30;1.60;;;;;;;10.26;48.71;98202.58;143948;1268;107436;-74
2023/03/11 14:54:48;;;;;;;2.90;1.90;;;;;;;10.26;48.74;98210.55;143905;1266;107457;-75
2023/03/11 14:58:30;;;;;;;4.20;1.60;;;;;;;10.28;48.70;98219.75;143993;1268;107510;-73
2023/03/11 15:01:54;;;;;;;2.40;1.70;;;;;;;10.29;48.39;98231.90;143951;1268;107919;-73
2023/03/11 15:05:27;;;;;;;2.30;1.80;;;;;;;10.28;48.50;98239.88;144014;1268;108808;-76
2023/03/11 15:09:08;;;;;;;2.30;1.80;;;;;;;10.26;48.58;98247.36;143991;1266;107554;-74
2023/03/11 15:12:33;;;;;;;2.00;1.60;;;;;;;10.24;48.26;98258.82;144058;1281;107503;-74
2023/03/11 15:16:03;;;;;;;2.50;2.00;;;;;;;10.21;48.49;98268.73;144134;1270;107654;-74
2023/03/11 15:19:28;;;;;;;2.90;2.00;;;;;;;10.18;48.59;98278.65;143874;1268;107365;-74
2023/03/11 15:22:59;;;;;;;2.10;1.90;;;;;;;10.16;48.49;98282.66;143916;1267;106958;-73
2023/03/11 15:26:25;;;;;;;2.40;1.70;;;;;;;10.15;48.51;98290.64;143968;1273;107553;-75
2023/03/11 15:29:51;;;;;;;1.70;1.60;;;;;;;10.16;48.34;98293.77;144389;1262;107338;-76
2023/03/11 15:33:21;;;;;;;1.90;1.80;;;;;;;10.16;48.21;98301.59;144875;1262;107356;-76
2023/03/11 15:36:46;;;;;;;3.30;1.60;;;;;;;10.15;48.08;98307.48;144449;1256;108372;-75
2023/03/11 15:40:27;;;;;;;4.10;1.80;;;;;;;10.13;48.29;98317.58;144713;1262;108443;-74
2023/03/11 15:44:20;;;;;;;4.40;1.60;;;;;;;10.11;48.07;98329.58;144361;1263;108179;-74
2023/03/11 15:47:43;;;;;;;1.40;1.30;;;;;;;10.07;47.95;98341.05;144703;1262;107567;-74
2023/03/11 15:51:04;;;;;;;1.90;1.60;;;;;;;10.05;48.04;98349.57;144860;1262;97960;-73
2023/03/11 15:54:28;;;;;;;3.60;2.40;;;;;;;10.02;48.23;98352.36;144582;1263;99131;-77